sensor_id;sensor_type;location;lat;lon;timestamp;P1;durP1;ratioP1;P2;durP2;ratioP2
60436;SDS011;46289;51.992;4.498;2022-12-01T00:02:02;52.20;;;20.13;;
60436;SDS011;46289;51.992;4.498;2022-12-01T00:04:32;50.55;;;18.92;;
60436;SDS011;46289;51.992;4.498;2022-12-01T00:07:02;56.08;;;22.95;;
60436;SDS011;46289;51.992;4.498;2022-12-01T00:09:32;50.03;;;20.17;;
60436;SDS011;46289;51.992;4.498;2022-12-01T00:12:15;53.42;;;21.80;;
60436;SDS011;46289;51.992;4.498;2022-12-01T00:14:47;48.97;;;17.48;;
60436;SDS011;46289;51.992;4.498;2022-12-01T00:17:27;43.35;;;18.63;;
60436;SDS011;46289;51.992;4.498;2022-12-01T00:19:57;56.33;;;22.33;;
60436;SDS011;46289;51.992;4.498;2022-12-01T00:22:26;50.13;;;20.48;;
60436;SDS011;46289;51.992;4.498;2022-12-01T00:24:56;48.42;;;20.15;;
60436;SDS011;46289;51.992;4.498;2022-12-01T00:27:25;47.67;;;20.48;;
60436;SDS011;46289;51.992;4.498;2022-12-01T00:29:59;50.47;;;22.00;;
60436;SDS011;46289;51.992;4.498;2022-12-01T00:32:28;65.97;;;22.95;;
60436;SDS011;46289;51.992;4.498;2022-12-01T00:34:58;52.90;;;20.25;;
60436;SDS011;46289;51.992;4.498;2022-12-01T00:37:28;53.50;;;21.52;;
60436;SDS011;46289;51.992;4.498;2022-12-01T00:39:58;56.08;;;22.55;;
60436;SDS011;46289;51.992;4.498;2022-12-01T00:42:29;57.17;;;21.90;;
60436;SDS011;46289;51.992;4.498;2022-12-01T00:45:01;57.58;;;21.08;;
60436;SDS011;46289;51.992;4.498;2022-12-01T00:47:31;50.67;;;20.30;;
60436;SDS011;46289;51.992;4.498;2022-12-01T00:50:01;48.92;;;20.65;;
60436;SDS011;46289;51.992;4.498;2022-12-01T00:52:31;56.65;;;21.05;;
60436;SDS011;46289;51.992;4.498;2022-12-01T00:55:01;56.90;;;22.95;;
60436;SDS011;46289;51.992;4.498;2022-12-01T00:57:31;52.58;;;19.17;;
60436;SDS011;46289;51.992;4.498;2022-12-01T01:00:04;48.30;;;18.83;;
60436;SDS011;46289;51.992;4.498;2022-12-01T01:02:34;58.85;;;24.15;;
60436;SDS011;46289;51.992;4.498;2022-12-01T01:05:07;48.80;;;20.55;;
60436;SDS011;46289;51.992;4.498;2022-12-01T01:07:37;56.95;;;23.90;;
60436;SDS011;46289;51.992;4.498;2022-12-01T01:10:07;52.67;;;22.63;;
60436;SDS011;46289;51.992;4.498;2022-12-01T01:12:38;53.17;;;22.90;;
60436;SDS011;46289;51.992;4.498;2022-12-01T01:15:10;69.10;;;23.00;;
60436;SDS011;46289;51.992;4.498;2022-12-01T01:17:40;67.47;;;24.95;;
60436;SDS011;46289;51.992;4.498;2022-12-01T01:20:10;64.70;;;25.75;;
60436;SDS011;46289;51.992;4.498;2022-12-01T01:22:40;55.25;;;22.15;;
60436;SDS011;46289;51.992;4.498;2022-12-01T01:25:10;64.95;;;25.08;;
60436;SDS011;46289;51.992;4.498;2022-12-01T01:27:39;62.83;;;24.42;;
60436;SDS011;46289;51.992;4.498;2022-12-01T01:30:12;74.90;;;27.60;;
60436;SDS011;46289;51.992;4.498;2022-12-01T01:32:42;74.65;;;28.90;;
60436;SDS011;46289;51.992;4.498;2022-12-01T01:35:12;81.35;;;28.77;;
60436;SDS011;46289;51.992;4.498;2022-12-01T01:37:41;71.18;;;29.15;;
60436;SDS011;46289;51.992;4.498;2022-12-01T01:40:11;74.60;;;25.58;;
60436;SDS011;46289;51.992;4.498;2022-12-01T01:42:41;75.20;;;28.17;;
60436;SDS011;46289;51.992;4.498;2022-12-01T01:45:23;68.32;;;25.80;;
60436;SDS011;46289;51.992;4.498;2022-12-01T01:47:57;73.57;;;29.27;;
60436;SDS011;46289;51.992;4.498;2022-12-01T01:50:29;85.35;;;29.75;;
60436;SDS011;46289;51.992;4.498;2022-12-01T01:53:00;81.28;;;27.38;;
60436;SDS011;46289;51.992;4.498;2022-12-01T01:55:32;85.70;;;31.33;;
60436;SDS011;46289;51.992;4.498;2022-12-01T01:58:04;86.22;;;28.80;;
60436;SDS011;46289;51.992;4.498;2022-12-01T02:00:39;97.50;;;29.95;;
60436;SDS011;46289;51.992;4.498;2022-12-01T02:03:14;71.63;;;27.95;;
60436;SDS011;46289;51.992;4.498;2022-12-01T02:08:15;81.43;;;30.33;;
60436;SDS011;46289;51.992;4.498;2022-12-01T02:10:49;89.93;;;30.35;;
60436;SDS011;46289;51.992;4.498;2022-12-01T02:13:37;92.55;;;29.13;;
60436;SDS011;46289;51.992;4.498;2022-12-01T02:16:20;90.22;;;30.45;;
60436;SDS011;46289;51.992;4.498;2022-12-01T02:19:01;98.38;;;29.55;;
60436;SDS011;46289;51.992;4.498;2022-12-01T02:21:51;80.80;;;29.08;;
60436;SDS011;46289;51.992;4.498;2022-12-01T02:24:43;84.13;;;32.58;;
60436;SDS011;46289;51.992;4.498;2022-12-01T02:27:36;79.05;;;27.15;;
60436;SDS011;46289;51.992;4.498;2022-12-01T02:30:30;84.60;;;31.23;;
60436;SDS011;46289;51.992;4.498;2022-12-01T02:35:38;90.13;;;27.60;;
60436;SDS011;46289;51.992;4.498;2022-12-01T02:38:16;83.70;;;28.23;;
60436;SDS011;46289;51.992;4.498;2022-12-01T02:40:54;89.35;;;29.38;;
60436;SDS011;46289;51.992;4.498;2022-12-01T02:43:31;82.68;;;29.20;;
60436;SDS011;46289;51.992;4.498;2022-12-01T02:46:07;81.30;;;30.52;;
60436;SDS011;46289;51.992;4.498;2022-12-01T02:48:42;72.05;;;29.20;;
60436;SDS011;46289;51.992;4.498;2022-12-01T02:51:16;66.90;;;28.48;;
60436;SDS011;46289;51.992;4.498;2022-12-01T02:53:49;68.95;;;25.95;;
60436;SDS011;46289;51.992;4.498;2022-12-01T02:56:20;70.93;;;27.52;;
60436;SDS011;46289;51.992;4.498;2022-12-01T02:58:51;58.75;;;26.15;;
60436;SDS011;46289;51.992;4.498;2022-12-01T03:01:34;75.80;;;27.98;;
60436;SDS011;46289;51.992;4.498;2022-12-01T03:04:21;70.35;;;24.90;;
60436;SDS011;46289;51.992;4.498;2022-12-01T03:07:02;68.30;;;28.27;;
60436;SDS011;46289;51.992;4.498;2022-12-01T03:09:49;82.80;;;29.00;;
60436;SDS011;46289;51.992;4.498;2022-12-01T03:12:25;66.40;;;26.50;;
60436;SDS011;46289;51.992;4.498;2022-12-01T03:15:04;87.65;;;30.10;;
60436;SDS011;46289;51.992;4.498;2022-12-01T03:17:42;84.95;;;29.05;;
60436;SDS011;46289;51.992;4.498;2022-12-01T03:20:18;74.65;;;28.35;;
60436;SDS011;46289;51.992;4.498;2022-12-01T03:22:55;74.15;;;26.23;;
60436;SDS011;46289;51.992;4.498;2022-12-01T03:25:29;95.00;;;30.45;;
60436;SDS011;46289;51.992;4.498;2022-12-01T03:28:00;85.50;;;27.73;;
60436;SDS011;46289;51.992;4.498;2022-12-01T03:30:48;68.00;;;26.52;;
60436;SDS011;46289;51.992;4.498;2022-12-01T03:33:24;81.23;;;27.93;;
60436;SDS011;46289;51.992;4.498;2022-12-01T03:35:58;66.53;;;26.50;;
60436;SDS011;46289;51.992;4.498;2022-12-01T03:38:31;78.28;;;28.73;;
60436;SDS011;46289;51.992;4.498;2022-12-01T03:41:06;69.85;;;26.65;;
60436;SDS011;46289;51.992;4.498;2022-12-01T03:43:41;64.93;;;25.02;;
60436;SDS011;46289;51.992;4.498;2022-12-01T03:46:20;58.92;;;23.98;;
60436;SDS011;46289;51.992;4.498;2022-12-01T03:48:58;65.30;;;24.95;;
60436;SDS011;46289;51.992;4.498;2022-12-01T03:51:30;58.33;;;21.85;;
60436;SDS011;46289;51.992;4.498;2022-12-01T03:54:04;60.70;;;24.08;;
60436;SDS011;46289;51.992;4.498;2022-12-01T03:56:40;52.50;;;23.05;;
60436;SDS011;46289;51.992;4.498;2022-12-01T03:59:15;72.05;;;26.25;;
60436;SDS011;46289;51.992;4.498;2022-12-01T04:01:48;66.72;;;23.60;;
60436;SDS011;46289;51.992;4.498;2022-12-01T04:04:21;54.38;;;23.50;;
60436;SDS011;46289;51.992;4.498;2022-12-01T04:06:50;58.05;;;24.38;;
60436;SDS011;46289;51.992;4.498;2022-12-01T04:09:21;68.13;;;26.45;;
60436;SDS011;46289;51.992;4.498;2022-12-01T04:11:50;57.35;;;22.25;;
60436;SDS011;46289;51.992;4.498;2022-12-01T04:14:33;78.68;;;27.75;;
60436;SDS011;46289;51.992;4.498;2022-12-01T04:17:02;79.65;;;26.67;;
60436;SDS011;46289;51.992;4.498;2022-12-01T04:19:34;68.38;;;26.20;;
60436;SDS011;46289;51.992;4.498;2022-12-01T04:22:04;78.15;;;25.92;;
60436;SDS011;46289;51.992;4.498;2022-12-01T04:24:33;62.67;;;24.50;;
60436;SDS011;46289;51.992;4.498;2022-12-01T04:27:03;70.90;;;25.67;;
60436;SDS011;46289;51.992;4.498;2022-12-01T04:29:33;75.13;;;25.45;;
60436;SDS011;46289;51.992;4.498;2022-12-01T04:32:02;59.05;;;23.42;;
60436;SDS011;46289;51.992;4.498;2022-12-01T04:34:35;53.05;;;22.13;;
60436;SDS011;46289;51.992;4.498;2022-12-01T04:37:06;71.10;;;26.95;;
60436;SDS011;46289;51.992;4.498;2022-12-01T04:39:37;67.80;;;24.70;;
60436;SDS011;46289;51.992;4.498;2022-12-01T04:42:07;71.55;;;24.95;;
60436;SDS011;46289;51.992;4.498;2022-12-01T04:44:38;68.55;;;25.75;;
60436;SDS011;46289;51.992;4.498;2022-12-01T04:47:08;81.75;;;27.33;;
60436;SDS011;46289;51.992;4.498;2022-12-01T04:49:40;62.67;;;25.73;;
60436;SDS011;46289;51.992;4.498;2022-12-01T04:52:09;72.47;;;26.35;;
60436;SDS011;46289;51.992;4.498;2022-12-01T04:54:39;74.22;;;24.02;;
60436;SDS011;46289;51.992;4.498;2022-12-01T04:57:09;82.55;;;30.38;;
60436;SDS011;46289;51.992;4.498;2022-12-01T04:59:38;59.85;;;24.35;;
60436;SDS011;46289;51.992;4.498;2022-12-01T05:02:08;79.70;;;27.23;;
60436;SDS011;46289;51.992;4.498;2022-12-01T05:04:40;64.45;;;26.08;;
60436;SDS011;46289;51.992;4.498;2022-12-01T05:07:13;63.70;;;26.02;;
60436;SDS011;46289;51.992;4.498;2022-12-01T05:09:43;76.03;;;26.83;;
60436;SDS011;46289;51.992;4.498;2022-12-01T05:12:13;58.25;;;24.92;;
60436;SDS011;46289;51.992;4.498;2022-12-01T05:14:44;56.50;;;23.20;;
60436;SDS011;46289;51.992;4.498;2022-12-01T05:17:14;69.30;;;24.23;;
60436;SDS011;46289;51.992;4.498;2022-12-01T05:19:46;71.70;;;25.15;;
60436;SDS011;46289;51.992;4.498;2022-12-01T05:22:28;71.28;;;25.00;;
60436;SDS011;46289;51.992;4.498;2022-12-01T05:25:18;66.10;;;24.50;;
60436;SDS011;46289;51.992;4.498;2022-12-01T05:27:47;55.92;;;22.38;;
60436;SDS011;46289;51.992;4.498;2022-12-01T05:30:17;75.35;;;27.40;;
60436;SDS011;46289;51.992;4.498;2022-12-01T05:32:53;72.75;;;28.65;;
60436;SDS011;46289;51.992;4.498;2022-12-01T05:35:26;75.70;;;27.30;;
60436;SDS011;46289;51.992;4.498;2022-12-01T05:37:55;71.03;;;25.55;;
60436;SDS011;46289;51.992;4.498;2022-12-01T05:40:33;65.18;;;24.77;;
60436;SDS011;46289;51.992;4.498;2022-12-01T05:43:02;80.85;;;26.70;;
60436;SDS011;46289;51.992;4.498;2022-12-01T05:45:32;68.38;;;25.92;;
60436;SDS011;46289;51.992;4.498;2022-12-01T05:48:02;69.05;;;25.23;;
60436;SDS011;46289;51.992;4.498;2022-12-01T05:50:36;64.55;;;25.77;;
60436;SDS011;46289;51.992;4.498;2022-12-01T05:53:08;71.80;;;25.02;;
60436;SDS011;46289;51.992;4.498;2022-12-01T05:55:39;62.67;;;23.73;;
60436;SDS011;46289;51.992;4.498;2022-12-01T05:58:09;69.20;;;25.90;;
60436;SDS011;46289;51.992;4.498;2022-12-01T06:00:40;64.85;;;25.88;;
60436;SDS011;46289;51.992;4.498;2022-12-01T06:03:11;58.25;;;22.58;;
60436;SDS011;46289;51.992;4.498;2022-12-01T06:05:44;63.05;;;24.52;;
60436;SDS011;46289;51.992;4.498;2022-12-01T06:08:13;53.13;;;21.98;;
60436;SDS011;46289;51.992;4.498;2022-12-01T06:10:43;74.07;;;25.95;;
60436;SDS011;46289;51.992;4.498;2022-12-01T06:13:13;66.90;;;25.88;;
60436;SDS011;46289;51.992;4.498;2022-12-01T06:15:42;67.55;;;25.00;;
60436;SDS011;46289;51.992;4.498;2022-12-01T06:18:12;75.85;;;27.17;;
60436;SDS011;46289;51.992;4.498;2022-12-01T06:20:44;81.05;;;25.17;;
60436;SDS011;46289;51.992;4.498;2022-12-01T06:23:14;84.47;;;27.85;;
60436;SDS011;46289;51.992;4.498;2022-12-01T06:25:44;70.68;;;26.88;;
60436;SDS011;46289;51.992;4.498;2022-12-01T06:28:13;67.90;;;24.17;;
60436;SDS011;46289;51.992;4.498;2022-12-01T06:30:43;80.00;;;25.92;;
60436;SDS011;46289;51.992;4.498;2022-12-01T06:33:13;69.15;;;24.95;;
60436;SDS011;46289;51.992;4.498;2022-12-01T06:35:45;78.53;;;26.67;;
60436;SDS011;46289;51.992;4.498;2022-12-01T06:38:15;73.10;;;25.23;;
60436;SDS011;46289;51.992;4.498;2022-12-01T06:40:44;81.18;;;25.48;;
60436;SDS011;46289;51.992;4.498;2022-12-01T06:43:14;82.80;;;26.92;;
60436;SDS011;46289;51.992;4.498;2022-12-01T06:45:44;82.97;;;28.10;;
60436;SDS011;46289;51.992;4.498;2022-12-01T06:48:13;71.22;;;25.55;;
60436;SDS011;46289;51.992;4.498;2022-12-01T06:50:46;73.25;;;27.88;;
60436;SDS011;46289;51.992;4.498;2022-12-01T06:53:15;76.45;;;27.63;;
60436;SDS011;46289;51.992;4.498;2022-12-01T06:55:45;93.93;;;29.13;;
60436;SDS011;46289;51.992;4.498;2022-12-01T06:58:14;82.38;;;26.20;;
60436;SDS011;46289;51.992;4.498;2022-12-01T07:00:44;92.10;;;27.90;;
60436;SDS011;46289;51.992;4.498;2022-12-01T07:03:17;87.10;;;28.03;;
60436;SDS011;46289;51.992;4.498;2022-12-01T07:05:55;75.18;;;27.83;;
60436;SDS011;46289;51.992;4.498;2022-12-01T07:08:26;66.65;;;26.35;;
60436;SDS011;46289;51.992;4.498;2022-12-01T07:10:57;64.93;;;23.50;;
60436;SDS011;46289;51.992;4.498;2022-12-01T07:13:27;74.50;;;28.10;;
60436;SDS011;46289;51.992;4.498;2022-12-01T07:15:59;72.75;;;24.92;;
60436;SDS011;46289;51.992;4.498;2022-12-01T07:18:29;82.15;;;29.70;;
60436;SDS011;46289;51.992;4.498;2022-12-01T07:21:02;82.55;;;27.52;;
60436;SDS011;46289;51.992;4.498;2022-12-01T07:23:34;81.50;;;26.65;;
60436;SDS011;46289;51.992;4.498;2022-12-01T07:26:05;66.00;;;26.23;;
60436;SDS011;46289;51.992;4.498;2022-12-01T07:28:36;77.88;;;26.45;;
60436;SDS011;46289;51.992;4.498;2022-12-01T07:31:06;72.53;;;29.00;;
60436;SDS011;46289;51.992;4.498;2022-12-01T07:33:38;73.00;;;28.50;;
60436;SDS011;46289;51.992;4.498;2022-12-01T07:36:10;77.05;;;27.30;;
60436;SDS011;46289;51.992;4.498;2022-12-01T07:38:41;80.28;;;26.15;;
60436;SDS011;46289;51.992;4.498;2022-12-01T07:41:12;72.90;;;27.25;;
60436;SDS011;46289;51.992;4.498;2022-12-01T07:43:44;67.35;;;26.95;;
60436;SDS011;46289;51.992;4.498;2022-12-01T07:46:15;70.90;;;26.15;;
60436;SDS011;46289;51.992;4.498;2022-12-01T07:48:49;91.28;;;29.08;;
60436;SDS011;46289;51.992;4.498;2022-12-01T07:51:23;71.55;;;27.45;;
60436;SDS011;46289;51.992;4.498;2022-12-01T07:53:54;82.90;;;26.75;;
60436;SDS011;46289;51.992;4.498;2022-12-01T07:56:24;82.60;;;29.67;;
60436;SDS011;46289;51.992;4.498;2022-12-01T07:58:53;94.53;;;30.42;;
60436;SDS011;46289;51.992;4.498;2022-12-01T08:01:24;74.10;;;27.67;;
60436;SDS011;46289;51.992;4.498;2022-12-01T08:03:54;72.88;;;27.98;;
60436;SDS011;46289;51.992;4.498;2022-12-01T08:06:28;88.00;;;30.70;;
60436;SDS011;46289;51.992;4.498;2022-12-01T08:08:58;87.13;;;29.02;;
60436;SDS011;46289;51.992;4.498;2022-12-01T08:11:27;79.55;;;26.45;;
60436;SDS011;46289;51.992;4.498;2022-12-01T08:13:57;96.32;;;30.17;;
60436;SDS011;46289;51.992;4.498;2022-12-01T08:16:27;100.20;;;33.20;;
60436;SDS011;46289;51.992;4.498;2022-12-01T08:18:56;87.03;;;28.35;;
60436;SDS011;46289;51.992;4.498;2022-12-01T08:21:29;92.93;;;30.58;;
60436;SDS011;46289;51.992;4.498;2022-12-01T08:23:59;87.45;;;28.25;;
60436;SDS011;46289;51.992;4.498;2022-12-01T08:26:28;95.50;;;29.55;;
60436;SDS011;46289;51.992;4.498;2022-12-01T08:28:58;89.07;;;33.65;;
60436;SDS011;46289;51.992;4.498;2022-12-01T08:31:29;89.75;;;31.27;;
60436;SDS011;46289;51.992;4.498;2022-12-01T08:34:03;84.93;;;30.15;;
60436;SDS011;46289;51.992;4.498;2022-12-01T08:36:35;93.90;;;32.55;;
60436;SDS011;46289;51.992;4.498;2022-12-01T08:39:06;88.40;;;30.13;;
60436;SDS011;46289;51.992;4.498;2022-12-01T08:41:36;85.03;;;29.45;;
60436;SDS011;46289;51.992;4.498;2022-12-01T08:44:06;74.30;;;28.10;;
60436;SDS011;46289;51.992;4.498;2022-12-01T08:46:37;82.38;;;28.55;;
60436;SDS011;46289;51.992;4.498;2022-12-01T08:49:07;81.93;;;28.15;;
60436;SDS011;46289;51.992;4.498;2022-12-01T08:51:39;90.13;;;30.50;;
60436;SDS011;46289;51.992;4.498;2022-12-01T08:54:09;80.68;;;30.27;;
60436;SDS011;46289;51.992;4.498;2022-12-01T08:56:41;85.82;;;27.80;;
60436;SDS011;46289;51.992;4.498;2022-12-01T08:59:13;72.95;;;27.60;;
60436;SDS011;46289;51.992;4.498;2022-12-01T09:01:43;88.18;;;30.95;;
60436;SDS011;46289;51.992;4.498;2022-12-01T09:04:23;86.88;;;32.22;;
60436;SDS011;46289;51.992;4.498;2022-12-01T09:06:57;83.78;;;29.65;;
60436;SDS011;46289;51.992;4.498;2022-12-01T09:09:27;91.05;;;30.20;;
60436;SDS011;46289;51.992;4.498;2022-12-01T09:11:57;93.80;;;31.48;;
60436;SDS011;46289;51.992;4.498;2022-12-01T09:14:27;91.03;;;32.05;;
60436;SDS011;46289;51.992;4.498;2022-12-01T09:16:56;85.45;;;30.17;;
60436;SDS011;46289;51.992;4.498;2022-12-01T09:19:26;97.38;;;32.17;;
60436;SDS011;46289;51.992;4.498;2022-12-01T09:21:59;95.45;;;29.60;;
60436;SDS011;46289;51.992;4.498;2022-12-01T09:24:28;103.15;;;31.23;;
60436;SDS011;46289;51.992;4.498;2022-12-01T09:26:59;104.63;;;35.28;;
60436;SDS011;46289;51.992;4.498;2022-12-01T09:29:29;94.68;;;32.17;;
60436;SDS011;46289;51.992;4.498;2022-12-01T09:31:59;94.07;;;31.85;;
60436;SDS011;46289;51.992;4.498;2022-12-01T09:34:29;91.03;;;30.92;;
60436;SDS011;46289;51.992;4.498;2022-12-01T09:37:01;99.10;;;30.67;;
60436;SDS011;46289;51.992;4.498;2022-12-01T09:39:32;95.88;;;29.92;;
60436;SDS011;46289;51.992;4.498;2022-12-01T09:42:02;92.45;;;30.60;;
60436;SDS011;46289;51.992;4.498;2022-12-01T09:44:37;101.57;;;35.10;;
60436;SDS011;46289;51.992;4.498;2022-12-01T09:47:12;99.65;;;31.92;;
60436;SDS011;46289;51.992;4.498;2022-12-01T09:49:51;97.03;;;33.65;;
60436;SDS011;46289;51.992;4.498;2022-12-01T09:52:31;96.45;;;32.38;;
60436;SDS011;46289;51.992;4.498;2022-12-01T09:55:09;103.55;;;32.05;;
60436;SDS011;46289;51.992;4.498;2022-12-01T09:57:42;99.20;;;33.05;;
60436;SDS011;46289;51.992;4.498;2022-12-01T10:00:16;99.95;;;33.45;;
60436;SDS011;46289;51.992;4.498;2022-12-01T10:02:48;93.00;;;32.42;;
60436;SDS011;46289;51.992;4.498;2022-12-01T10:05:23;90.32;;;31.10;;
60436;SDS011;46289;51.992;4.498;2022-12-01T10:08:01;96.10;;;31.60;;
60436;SDS011;46289;51.992;4.498;2022-12-01T10:10:35;92.50;;;34.00;;
60436;SDS011;46289;51.992;4.498;2022-12-01T10:13:10;82.80;;;29.42;;
60436;SDS011;46289;51.992;4.498;2022-12-01T10:15:47;81.55;;;28.50;;
60436;SDS011;46289;51.992;4.498;2022-12-01T10:18:27;82.95;;;29.80;;
60436;SDS011;46289;51.992;4.498;2022-12-01T10:21:10;89.45;;;31.88;;
60436;SDS011;46289;51.992;4.498;2022-12-01T10:23:57;91.20;;;32.67;;
60436;SDS011;46289;51.992;4.498;2022-12-01T10:26:34;87.88;;;30.95;;
60436;SDS011;46289;51.992;4.498;2022-12-01T10:29:14;87.75;;;31.73;;
60436;SDS011;46289;51.992;4.498;2022-12-01T10:31:52;93.13;;;31.95;;
60436;SDS011;46289;51.992;4.498;2022-12-01T10:34:24;95.22;;;31.55;;
60436;SDS011;46289;51.992;4.498;2022-12-01T10:36:57;91.53;;;32.60;;
60436;SDS011;46289;51.992;4.498;2022-12-01T10:39:30;91.28;;;31.35;;
60436;SDS011;46289;51.992;4.498;2022-12-01T10:42:03;83.88;;;31.23;;
60436;SDS011;46289;51.992;4.498;2022-12-01T10:44:35;79.38;;;28.30;;
60436;SDS011;46289;51.992;4.498;2022-12-01T10:47:08;86.03;;;29.23;;
60436;SDS011;46289;51.992;4.498;2022-12-01T10:49:45;78.93;;;27.17;;
60436;SDS011;46289;51.992;4.498;2022-12-01T10:52:28;80.13;;;31.08;;
60436;SDS011;46289;51.992;4.498;2022-12-01T10:57:58;74.13;;;28.40;;
60436;SDS011;46289;51.992;4.498;2022-12-01T11:00:36;75.63;;;29.75;;
60436;SDS011;46289;51.992;4.498;2022-12-01T11:03:26;71.30;;;26.52;;
60436;SDS011;46289;51.992;4.498;2022-12-01T11:05:57;68.30;;;25.33;;
60436;SDS011;46289;51.992;4.498;2022-12-01T11:08:30;62.97;;;24.60;;
60436;SDS011;46289;51.992;4.498;2022-12-01T11:11:21;71.90;;;27.65;;
60436;SDS011;46289;51.992;4.498;2022-12-01T11:13:53;61.00;;;23.45;;
60436;SDS011;46289;51.992;4.498;2022-12-01T11:16:32;68.95;;;25.50;;
60436;SDS011;46289;51.992;4.498;2022-12-01T11:19:15;67.43;;;24.33;;
60436;SDS011;46289;51.992;4.498;2022-12-01T11:21:54;65.68;;;25.52;;
60436;SDS011;46289;51.992;4.498;2022-12-01T11:27:17;64.32;;;21.08;;
60436;SDS011;46289;51.992;4.498;2022-12-01T11:29:49;63.63;;;23.80;;
60436;SDS011;46289;51.992;4.498;2022-12-01T11:32:21;56.08;;;23.13;;
60436;SDS011;46289;51.992;4.498;2022-12-01T11:34:55;69.00;;;25.25;;
60436;SDS011;46289;51.992;4.498;2022-12-01T11:37:28;61.95;;;22.42;;
60436;SDS011;46289;51.992;4.498;2022-12-01T11:40:05;57.70;;;22.17;;
60436;SDS011;46289;51.992;4.498;2022-12-01T11:42:40;54.42;;;21.73;;
60436;SDS011;46289;51.992;4.498;2022-12-01T11:45:28;58.33;;;21.65;;
60436;SDS011;46289;51.992;4.498;2022-12-01T11:48:04;51.63;;;20.23;;
60436;SDS011;46289;51.992;4.498;2022-12-01T11:50:36;64.90;;;23.17;;
60436;SDS011;46289;51.992;4.498;2022-12-01T11:53:23;61.38;;;21.13;;
60436;SDS011;46289;51.992;4.498;2022-12-01T11:56:11;50.95;;;21.10;;
60436;SDS011;46289;51.992;4.498;2022-12-01T11:58:46;55.13;;;22.20;;
60436;SDS011;46289;51.992;4.498;2022-12-01T12:01:20;48.40;;;20.48;;
60436;SDS011;46289;51.992;4.498;2022-12-01T12:04:02;51.00;;;18.85;;
60436;SDS011;46289;51.992;4.498;2022-12-01T12:06:46;43.53;;;17.88;;
60436;SDS011;46289;51.992;4.498;2022-12-01T12:09:33;53.58;;;20.50;;
60436;SDS011;46289;51.992;4.498;2022-12-01T12:12:21;49.25;;;20.70;;
60436;SDS011;46289;51.992;4.498;2022-12-01T12:15:07;46.35;;;19.38;;
60436;SDS011;46289;51.992;4.498;2022-12-01T12:17:48;51.97;;;19.88;;
60436;SDS011;46289;51.992;4.498;2022-12-01T12:20:41;53.80;;;20.58;;
60436;SDS011;46289;51.992;4.498;2022-12-01T12:23:27;50.75;;;19.75;;
60436;SDS011;46289;51.992;4.498;2022-12-01T12:26:08;48.25;;;19.08;;
60436;SDS011;46289;51.992;4.498;2022-12-01T12:28:53;42.15;;;17.80;;
60436;SDS011;46289;51.992;4.498;2022-12-01T12:31:46;43.85;;;19.52;;
60436;SDS011;46289;51.992;4.498;2022-12-01T12:34:32;42.60;;;17.80;;
60436;SDS011;46289;51.992;4.498;2022-12-01T12:37:16;44.75;;;18.38;;
60436;SDS011;46289;51.992;4.498;2022-12-01T12:40:08;41.65;;;18.15;;
60436;SDS011;46289;51.992;4.498;2022-12-01T12:42:51;42.63;;;17.45;;
60436;SDS011;46289;51.992;4.498;2022-12-01T12:45:34;38.47;;;17.10;;
60436;SDS011;46289;51.992;4.498;2022-12-01T12:48:22;46.55;;;19.30;;
60436;SDS011;46289;51.992;4.498;2022-12-01T12:51:16;48.25;;;21.83;;
60436;SDS011;46289;51.992;4.498;2022-12-01T12:53:51;40.08;;;17.02;;
60436;SDS011;46289;51.992;4.498;2022-12-01T12:56:43;41.58;;;17.48;;
60436;SDS011;46289;51.992;4.498;2022-12-01T12:59:15;47.13;;;18.85;;
60436;SDS011;46289;51.992;4.498;2022-12-01T13:01:53;44.83;;;18.08;;
60436;SDS011;46289;51.992;4.498;2022-12-01T13:04:33;44.75;;;19.58;;
60436;SDS011;46289;51.992;4.498;2022-12-01T13:07:15;50.63;;;18.73;;
60436;SDS011;46289;51.992;4.498;2022-12-01T13:09:54;46.90;;;18.45;;
60436;SDS011;46289;51.992;4.498;2022-12-01T13:12:30;50.17;;;19.50;;
60436;SDS011;46289;51.992;4.498;2022-12-01T13:15:05;50.28;;;17.45;;
60436;SDS011;46289;51.992;4.498;2022-12-01T13:17:45;51.10;;;19.15;;
60436;SDS011;46289;51.992;4.498;2022-12-01T13:20:22;45.15;;;17.42;;
60436;SDS011;46289;51.992;4.498;2022-12-01T13:22:54;44.72;;;17.27;;
60436;SDS011;46289;51.992;4.498;2022-12-01T13:25:26;42.60;;;16.92;;
60436;SDS011;46289;51.992;4.498;2022-12-01T13:28:01;44.75;;;17.88;;
60436;SDS011;46289;51.992;4.498;2022-12-01T13:30:34;43.97;;;18.02;;
60436;SDS011;46289;51.992;4.498;2022-12-01T13:33:04;41.58;;;17.88;;
60436;SDS011;46289;51.992;4.498;2022-12-01T13:35:38;41.97;;;18.13;;
60436;SDS011;46289;51.992;4.498;2022-12-01T13:38:17;47.63;;;18.10;;
60436;SDS011;46289;51.992;4.498;2022-12-01T13:43:45;51.53;;;19.42;;
60436;SDS011;46289;51.992;4.498;2022-12-01T13:46:21;49.97;;;19.02;;
60436;SDS011;46289;51.992;4.498;2022-12-01T13:48:54;44.60;;;19.73;;
60436;SDS011;46289;51.992;4.498;2022-12-01T13:51:27;50.40;;;18.35;;
60436;SDS011;46289;51.992;4.498;2022-12-01T13:54:32;54.92;;;19.20;;
60436;SDS011;46289;51.992;4.498;2022-12-01T13:57:07;45.88;;;17.60;;
60436;SDS011;46289;51.992;4.498;2022-12-01T14:00:00;48.80;;;18.88;;
60436;SDS011;46289;51.992;4.498;2022-12-01T14:02:34;48.92;;;20.00;;
60436;SDS011;46289;51.992;4.498;2022-12-01T14:08:21;49.58;;;17.50;;
60436;SDS011;46289;51.992;4.498;2022-12-01T14:10:53;45.10;;;17.75;;
60436;SDS011;46289;51.992;4.498;2022-12-01T14:13:26;46.88;;;18.15;;
60436;SDS011;46289;51.992;4.498;2022-12-01T14:15:58;44.00;;;17.75;;
60436;SDS011;46289;51.992;4.498;2022-12-01T14:18:32;45.45;;;18.65;;
60436;SDS011;46289;51.992;4.498;2022-12-01T14:21:05;43.87;;;18.33;;
60436;SDS011;46289;51.992;4.498;2022-12-01T14:23:39;45.90;;;17.92;;
60436;SDS011;46289;51.992;4.498;2022-12-01T14:26:28;46.03;;;17.70;;
60436;SDS011;46289;51.992;4.498;2022-12-01T14:32:02;43.85;;;17.73;;
60436;SDS011;46289;51.992;4.498;2022-12-01T14:35:03;41.65;;;16.40;;
60436;SDS011;46289;51.992;4.498;2022-12-01T14:37:36;41.72;;;17.35;;
60436;SDS011;46289;51.992;4.498;2022-12-01T14:40:18;44.05;;;17.90;;
60436;SDS011;46289;51.992;4.498;2022-12-01T14:42:54;42.47;;;17.00;;
60436;SDS011;46289;51.992;4.498;2022-12-01T14:45:39;45.13;;;16.58;;
60436;SDS011;46289;51.992;4.498;2022-12-01T14:48:14;47.63;;;17.98;;
60436;SDS011;46289;51.992;4.498;2022-12-01T14:50:50;44.95;;;17.38;;
60436;SDS011;46289;51.992;4.498;2022-12-01T14:53:27;43.17;;;17.25;;
60436;SDS011;46289;51.992;4.498;2022-12-01T14:56:09;40.78;;;16.73;;
60436;SDS011;46289;51.992;4.498;2022-12-01T14:58:49;40.00;;;17.67;;
60436;SDS011;46289;51.992;4.498;2022-12-01T15:01:20;40.95;;;16.25;;
60436;SDS011;46289;51.992;4.498;2022-12-01T15:03:53;43.55;;;17.08;;
60436;SDS011;46289;51.992;4.498;2022-12-01T15:06:26;41.53;;;18.48;;
60436;SDS011;46289;51.992;4.498;2022-12-01T15:09:03;38.10;;;15.52;;
60436;SDS011;46289;51.992;4.498;2022-12-01T15:11:58;37.13;;;15.10;;
60436;SDS011;46289;51.992;4.498;2022-12-01T15:17:47;39.95;;;16.60;;
60436;SDS011;46289;51.992;4.498;2022-12-01T15:20:27;31.20;;;15.02;;
60436;SDS011;46289;51.992;4.498;2022-12-01T15:23:00;37.22;;;15.20;;
60436;SDS011;46289;51.992;4.498;2022-12-01T15:25:30;43.20;;;16.00;;
60436;SDS011;46289;51.992;4.498;2022-12-01T15:28:10;35.78;;;14.13;;